createdAt,value
2023-02-27T00:01:13.198Z,4.80
2023-02-27T00:06:12.360Z,2.47
2023-02-27T00:11:11.178Z,2.67
2023-02-27T00:16:12.732Z,4.47
2023-02-27T00:21:11.743Z,4.18
2023-02-27T00:26:10.610Z,2.60
2023-02-27T00:31:10.053Z,1.35
2023-02-27T00:36:08.951Z,1.92
2023-02-27T00:41:07.801Z,2.53
2023-02-27T00:46:06.654Z,2.13
2023-02-27T00:51:05.659Z,1.60
2023-02-27T00:56:04.756Z,2.42
2023-02-27T01:01:03.857Z,1.45
2023-02-27T01:06:02.969Z,2.05
2023-02-27T01:11:01.793Z,2.08
2023-02-27T01:16:04.158Z,1.77
2023-02-27T01:21:03.051Z,1.42
2023-02-27T01:26:01.928Z,2.78
2023-02-27T01:31:01.548Z,2.50
2023-02-27T01:36:00.534Z,3.25
2023-02-27T01:41:00.773Z,3.13
2023-02-27T01:46:01.010Z,2.58
2023-02-27T01:51:15.212Z,3.50
2023-02-27T01:56:18.604Z,3.55
2023-02-27T02:01:19.388Z,1.48
2023-02-27T02:06:18.977Z,3.42
2023-02-27T02:11:20.847Z,2.33
2023-02-27T02:16:38.151Z,3.13
2023-02-27T02:22:23.773Z,2.13
2023-02-27T02:27:57.908Z,5.65
2023-02-27T02:33:21.953Z,4.18
2023-02-27T02:38:39.571Z,4.60
2023-02-27T02:43:41.594Z,3.53
2023-02-27T02:49:10.902Z,4.93
2023-02-27T02:54:29.430Z,5.38
2023-02-27T02:59:53.695Z,2.85
2023-02-27T03:04:58.414Z,2.10
2023-02-27T03:10:05.214Z,2.63
2023-02-27T03:15:22.983Z,3.42
2023-02-27T03:20:27.453Z,2.00
2023-02-27T03:25:29.972Z,2.97
2023-02-27T03:31:20.420Z,2.70
2023-02-27T03:36:40.620Z,2.47
2023-02-27T03:41:43.893Z,3.08
2023-02-27T03:47:08.799Z,3.53
2023-02-27T03:52:07.774Z,3.55
2023-02-27T03:57:09.013Z,2.60
2023-02-27T04:02:08.596Z,4.25
2023-02-27T04:07:24.437Z,3.60
2023-02-27T04:12:54.045Z,2.70
2023-02-27T04:18:11.664Z,4.20
2023-02-27T04:23:14.244Z,2.40
2023-02-27T04:28:27.752Z,3.00
2023-02-27T04:33:45.094Z,2.83
2023-02-27T04:38:54.273Z,5.05
2023-02-27T04:43:55.110Z,3.28
2023-02-27T04:48:56.988Z,5.10
2023-02-27T04:54:09.188Z,5.45
2023-02-27T04:59:21.362Z,3.90
2023-02-27T05:04:23.110Z,2.90
2023-02-27T05:09:30.970Z,2.90
2023-02-27T05:14:42.573Z,3.83
2023-02-27T05:19:42.916Z,2.08
2023-02-27T05:24:44.569Z,3.67
2023-02-27T05:29:54.287Z,7.95
2023-02-27T05:34:57.778Z,6.90
2023-02-27T05:45:02.587Z,3.00
2023-02-27T05:50:15.864Z,4.72
2023-02-27T05:55:26.512Z,5.93
2023-02-27T06:00:38.123Z,4.97
2023-02-27T06:05:39.692Z,3.83
2023-02-27T06:10:38.643Z,3.38
2023-02-27T06:15:37.431Z,3.42
2023-02-27T06:20:36.282Z,5.38
2023-02-27T06:25:35.186Z,3.50
2023-02-27T06:30:34.092Z,4.18
2023-02-27T06:35:33.050Z,3.88
2023-02-27T06:40:32.021Z,4.05
2023-02-27T06:45:30.949Z,4.70
2023-02-27T06:50:29.842Z,5.50
2023-02-27T06:55:28.724Z,6.25
2023-02-27T07:00:27.527Z,8.50
2023-02-27T07:05:26.295Z,7.35
2023-02-27T07:10:25.853Z,3.80
2023-02-27T07:15:24.760Z,5.20
2023-02-27T07:20:23.741Z,4.18
2023-02-27T07:25:22.723Z,4.75
2023-02-27T07:30:21.673Z,4.85
2023-02-27T07:35:20.457Z,6.88
2023-02-27T07:40:19.475Z,3.95
2023-02-27T07:45:22.430Z,3.72
2023-02-27T07:50:21.309Z,4.78
2023-02-27T07:55:20.195Z,4.97
2023-02-27T08:00:19.506Z,4.60
2023-02-27T08:05:18.675Z,2.97
2023-02-27T08:10:17.901Z,4.25
2023-02-27T08:15:17.684Z,4.05
2023-02-27T08:20:16.911Z,4.05
2023-02-27T08:25:16.293Z,5.35
2023-02-27T08:30:17.023Z,3.22
2023-02-27T08:35:16.160Z,4.40
2023-02-27T08:40:14.980Z,6.07
2023-02-27T08:45:13.824Z,4.65
2023-02-27T08:50:12.760Z,6.65
2023-02-27T08:55:11.659Z,3.65
2023-02-27T09:00:14.632Z,4.18
2023-02-27T09:05:13.749Z,4.88
2023-02-27T09:10:13.167Z,4.72
2023-02-27T09:15:12.330Z,3.78
2023-02-27T09:20:12.258Z,5.10
2023-02-27T09:25:11.019Z,3.15
2023-02-27T09:30:10.566Z,2.88
2023-02-27T09:35:09.631Z,11.52
2023-02-27T09:40:19.884Z,2.80
2023-02-27T09:45:25.735Z,9.60
2023-02-27T09:50:41.318Z,3.80
2023-02-27T09:55:42.757Z,5.43
2023-02-27T10:00:46.105Z,5.13
2023-02-27T10:06:00.490Z,4.10
2023-02-27T10:11:07.100Z,5.53
2023-02-27T10:16:10.610Z,5.15
2023-02-27T10:21:38.517Z,5.90
2023-02-27T10:26:43.586Z,4.55
2023-02-27T10:31:44.979Z,4.75
2023-02-27T10:36:46.766Z,5.53
2023-02-27T10:41:46.871Z,4.72
2023-02-27T10:46:46.455Z,3.60
2023-02-27T10:51:47.147Z,3.88
2023-02-27T10:56:49.636Z,3.85
2023-02-27T11:01:57.489Z,2.95
2023-02-27T11:06:57.052Z,2.42
2023-02-27T11:12:19.742Z,2.35
2023-02-27T11:17:26.605Z,3.10
2023-02-27T11:22:28.121Z,1.85
2023-02-27T11:27:30.574Z,2.10
2023-02-27T11:32:51.397Z,1.52
2023-02-27T11:37:52.514Z,2.75
2023-02-27T11:42:55.114Z,2.72
2023-02-27T11:48:01.311Z,2.88
2023-02-27T11:53:19.429Z,1.75
2023-02-27T11:58:22.070Z,2.60
2023-02-27T12:03:33.847Z,3.38
2023-02-27T12:08:42.817Z,2.70
2023-02-27T12:13:47.409Z,2.75
2023-02-27T12:18:57.447Z,2.03
2023-02-27T12:24:09.523Z,2.78
2023-02-27T12:29:17.682Z,1.92
2023-02-27T12:34:40.462Z,3.40
2023-02-27T12:39:42.145Z,3.10
2023-02-27T12:45:10.118Z,1.88
2023-02-27T12:50:18.340Z,1.27
2023-02-27T12:55:33.496Z,3.35
2023-02-27T13:00:46.361Z,2.15
2023-02-27T13:05:53.546Z,1.30
2023-02-27T13:11:22.999Z,1.95
2023-02-27T13:16:26.547Z,2.40
2023-02-27T13:26:36.354Z,2.35
2023-02-27T13:31:53.128Z,2.17
2023-02-27T13:37:06.900Z,3.03
2023-02-27T13:42:25.999Z,0.93
2023-02-27T13:47:31.164Z,1.27
2023-02-27T13:52:35.473Z,2.17
2023-02-27T13:57:37.219Z,0.35
2023-02-27T14:02:57.953Z,2.50
2023-02-27T14:08:25.703Z,2.42
2023-02-27T14:13:47.037Z,1.63
2023-02-27T14:18:58.252Z,0.50
2023-02-27T14:23:57.306Z,0.38
2023-02-27T14:28:58.198Z,0.90
2023-02-27T14:34:05.060Z,2.10
2023-02-27T14:39:04.530Z,2.92
2023-02-27T14:44:04.202Z,2.97
2023-02-27T14:49:25.260Z,2.05
2023-02-27T14:54:26.480Z,2.90
2023-02-27T14:59:43.623Z,1.98
2023-02-27T15:04:42.763Z,1.27
2023-02-27T15:09:44.682Z,0.57
2023-02-27T15:14:49.775Z,0.77
2023-02-27T15:19:50.187Z,1.38
2023-02-27T15:24:50.690Z,0.65
2023-02-27T15:30:00.407Z,0.95
2023-02-27T15:35:03.705Z,0.98
2023-02-27T15:40:05.998Z,1.23
2023-02-27T15:45:08.568Z,2.45
2023-02-27T15:50:23.212Z,1.33
2023-02-27T15:55:30.904Z,0.85
2023-02-27T16:00:33.826Z,1.52
2023-02-27T16:05:39.120Z,1.45
2023-02-27T16:10:44.558Z,2.63
2023-02-27T16:15:44.720Z,1.95
2023-02-27T16:20:54.864Z,2.17
2023-02-27T16:26:08.828Z,1.33
2023-02-27T16:31:24.787Z,2.53
2023-02-27T16:36:26.853Z,1.85
2023-02-27T16:41:27.996Z,1.35
2023-02-27T16:46:27.388Z,3.45
2023-02-27T16:51:29.471Z,3.33
2023-02-27T16:56:37.587Z,2.17
2023-02-27T17:01:37.238Z,2.53
2023-02-27T17:06:36.180Z,2.25
2023-02-27T17:11:35.078Z,3.03
2023-02-27T17:16:33.962Z,1.98
2023-02-27T17:21:34.518Z,2.03
2023-02-27T17:26:34.563Z,4.82
2023-02-27T17:31:33.604Z,3.00
2023-02-27T17:36:32.486Z,3.33
2023-02-27T17:41:32.394Z,2.38
2023-02-27T17:46:31.814Z,4.10
2023-02-27T17:51:31.632Z,3.08
2023-02-27T17:56:36.759Z,3.80
2023-02-27T18:01:36.799Z,4.10
2023-02-27T18:06:35.731Z,3.05
2023-02-27T18:11:34.746Z,3.97
2023-02-27T18:16:34.115Z,4.22
2023-02-27T18:21:33.740Z,4.50
2023-02-27T18:26:33.597Z,3.67
2023-02-27T18:31:35.547Z,4.50
2023-02-27T18:36:34.773Z,4.13
2023-02-27T18:41:34.328Z,2.38
2023-02-27T18:46:34.238Z,4.75
2023-02-27T18:51:33.372Z,2.38
2023-02-27T18:56:33.016Z,3.75
2023-02-27T19:01:35.012Z,3.30
2023-02-27T19:06:36.929Z,4.72
2023-02-27T19:11:36.718Z,3.75
2023-02-27T19:16:35.962Z,3.03
2023-02-27T19:21:36.006Z,5.47
2023-02-27T19:26:35.480Z,4.65
2023-02-27T19:31:34.879Z,6.00
2023-02-27T19:36:34.808Z,4.03
2023-02-27T19:41:33.772Z,4.13
2023-02-27T19:46:34.677Z,5.32
2023-02-27T19:51:33.771Z,5.47
2023-02-27T19:56:32.724Z,4.25
2023-02-27T20:01:34.109Z,4.13
2023-02-27T20:06:41.930Z,4.90
2023-02-27T20:11:43.516Z,5.18
2023-02-27T20:16:42.904Z,3.40
2023-02-27T20:21:42.135Z,4.32
2023-02-27T20:26:43.623Z,3.60
2023-02-27T20:31:46.183Z,5.20
2023-02-27T20:36:45.088Z,3.83
2023-02-27T20:41:45.006Z,5.47
2023-02-27T20:46:44.905Z,4.10
2023-02-27T20:51:44.826Z,4.63
2023-02-27T20:56:43.793Z,4.85
2023-02-27T21:01:51.534Z,5.60
2023-02-27T21:06:51.099Z,4.75
2023-02-27T21:11:49.950Z,4.72
2023-02-27T21:16:51.478Z,5.43
2023-02-27T21:21:50.642Z,6.90
2023-02-27T21:26:49.745Z,5.60
2023-02-27T21:31:50.904Z,6.82
2023-02-27T21:36:51.606Z,5.65
2023-02-27T21:41:50.887Z,5.63
2023-02-27T21:46:49.859Z,5.78
2023-02-27T21:51:49.728Z,7.43
2023-02-27T21:56:49.431Z,6.70
2023-02-27T22:01:48.725Z,4.65
2023-02-27T22:06:49.525Z,5.43
2023-02-27T22:11:48.932Z,6.97
2023-02-27T22:16:47.770Z,6.45
2023-02-27T22:21:46.644Z,7.63
2023-02-27T22:26:45.858Z,8.38
2023-02-27T22:31:45.441Z,7.05
2023-02-27T22:36:46.022Z,6.45
2023-02-27T22:41:46.234Z,6.82
2023-02-27T22:46:47.821Z,6.20
2023-02-27T22:51:50.761Z,6.15
2023-02-27T22:56:53.971Z,6.57
2023-02-27T23:01:54.131Z,7.10
2023-02-27T23:06:55.994Z,6.40
2023-02-27T23:11:55.515Z,8.60
2023-02-27T23:16:54.286Z,7.15
2023-02-27T23:21:53.085Z,8.68
2023-02-27T23:26:53.349Z,8.15
2023-02-27T23:31:52.306Z,8.25
2023-02-27T23:36:51.587Z,7.60
2023-02-27T23:41:50.472Z,6.72
2023-02-27T23:46:49.836Z,6.07
2023-02-27T23:51:48.715Z,8.40
2023-02-27T23:56:48.641Z,7.82
